Flugplatz Friedersdorf

Für EDCF sind keine METAR/TAF Berichte vorhanden.
Es werden die Flugwettermeldungen vom Flugplatz Berlin-Schönefeld International in 21 km Entfernung angezeigt.

Bericht für EDDB

vom 18.06. um 18:20 UTC

Wind 7 kt aus 160°

Sichtweite 10 km oder mehr

gute Sicht, keine Wolken < 5000 ft, keine CB, keine Wettererscheinungen (CAVOK)

Temperatur 31.0°C

Taupunkt 11.0°C

Luftfeuchtigkeit 29%

Luftdruck 1013 hPa

keine wesentliche Wetteränderung innerhalb den nächsten 2 Stunden zu erwarten

EDDB 181820Z 16007KT CAVOK 31/11 Q1013 NOSIG

Prognose für EDDB

vom 18.06. um 17:00 UTC

Zwischen 18:00 UTC und 20:00 UTC

Wind 9 kt aus 140°

Sichtweite 10 km oder mehr

keine signifikanten Wettererscheinungen

keine Wolken


Zwischen 20:00 und 22:00 UTC übergehend zu

Wind 4 kt aus 130°

Sichtweite 10 km oder mehr

keine signifikanten Wettererscheinungen

keine Wolken


Am 19.06. zwischen 08:00 und 10:00 UTC übergehend zu

Wind 6 kt aus 260°

Sichtweite 10 km oder mehr

keine signifikanten Wettererscheinungen

keine Wolken


Am 19.06. zwischen 14:00 UTC und 18:00 UTC zeitweise mit einer Wahrscheinlichkeit von 30%

Code: TSRA

aufgelockert bewölkt in 7000 ft

TAF EDDB 181700Z 1818/1918 14009KT CAVOK BECMG 1820/1822 13004KT BECMG 1908/1910 26006KT PROB30 TEMPO 1914/1918 TSRA SCT070CB
Impressum